Toryo Maru — JGPC — position and weather

sailwx.info

Track history (hours):
 
Tides and Currents Weather Stations Pressure Air Temp Water Temp Dewpoint Dewpoint Depression Visibility Wind Speed Wind Dir Waves Ship Positions

Toryo Maru

Last reported at 2017-Nov-19 06:25 UTC. Time now 2017-Nov-21 23:11 UTC.
Position N 34°58' E 139°26'.

Length 69 m; draft 5 m.

Type: Tanker. MMSI: 431697000.

Date/timePositionNaut miles runAvg speedWind from/ knotsBaromVisibWave heightAir tempDewpointWater temp
2017-Nov-19 06:25N 34°58' E 139°26'510.8
2017-Nov-19 05:58N 35°00' E 139°31'511.5
2017-Nov-19 05:31N 35°03' E 139°36'611.9
2017-Nov-19 05:01N 35°07' E 139°42'611.8
2017-Nov-19 04:31N 35°12' E 139°46'510.9
2017-Nov-19 04:01N 35°17' E 139°45'510.8
2017-Nov-19 03:30N 35°22' E 139°42'510.9
2017-Nov-19 03:01N 35°27' E 139°46'4 7.7
2017-Nov-19 02:30N 35°30' E 139°47'0 0.2
2017-Nov-19 01:48N 35°31' E 139°46'0 0.0
2017-Nov-19 01:30N 35°31' E 139°46'0 0.0
2017-Nov-19 00:18N 35°31' E 139°46'0 0.2
2017-Nov-19 00:00N 35°31' E 139°46'3 6.1
2017-Nov-18 23:29N 35°30' E 139°50'0 0.1
2017-Nov-18 23:00N 35°30' E 139°50'0 0.0
2017-Nov-18 22:30N 35°30' E 139°50'0 0.0
2017-Nov-18 22:00N 35°30' E 139°50'0 0.0
2017-Nov-18 21:30N 35°30' E 139°50'0 0.0
2017-Nov-18 21:00N 35°30' E 139°50'0 0.0
2017-Nov-18 20:30N 35°30' E 139°50'0 0.0
2017-Nov-18 20:00N 35°30' E 139°50'0 0.1
2017-Nov-18 19:30N 35°30' E 139°50'0 0.1
2017-Nov-18 18:58N 35°30' E 139°50'0 0.1
2017-Nov-18 18:29N 35°30' E 139°50'0 0.0
2017-Nov-18 18:00N 35°30' E 139°50'0 0.0
2017-Nov-18 17:30N 35°30' E 139°50'0 0.0
2017-Nov-18 16:58N 35°30' E 139°50'0 0.0
2017-Nov-18 16:29N 35°30' E 139°50'0 0.0
2017-Nov-18 16:00N 35°30' E 139°50'0 0.0
2017-Nov-18 15:30N 35°30' E 139°50'0 0.0
2017-Nov-18 15:00N 35°30' E 139°50'0 0.1
2017-Nov-18 14:30N 35°30' E 139°50'0 0.0
2017-Nov-18 14:00N 35°30' E 139°50'0 0.0
2017-Nov-18 13:30N 35°30' E 139°50'0 0.0
2017-Nov-18 13:00N 35°30' E 139°50'0 0.0
2017-Nov-18 12:30N 35°30' E 139°50'0 0.0
2017-Nov-18 12:00N 35°30' E 139°50'0 0.0
2017-Nov-18 11:30N 35°30' E 139°50'0 0.0
2017-Nov-18 11:00N 35°30' E 139°50'0 0.0
2017-Nov-18 10:30N 35°30' E 139°50'0 0.0
2017-Nov-18 09:57N 35°30' E 139°50'0 0.1
2017-Nov-18 09:21N 35°30' E 139°50'0 0.0
2017-Nov-18 08:57N 35°30' E 139°50'0 0.0
2017-Nov-18 08:30N 35°30' E 139°50'5 9.0
2017-Nov-18 07:53N 35°31' E 139°57'3 0.6
2017-Nov-18 01:52N 35°30' E 140°01'3 8.7
2017-Nov-18 01:29N 35°30' E 139°57'612.1
2017-Nov-18 01:00N 35°27' E 139°51'612.0
2017-Nov-18 00:30N 35°23' E 139°46'510.8
2017-Nov-18 00:00N 35°17' E 139°45'510.8
2017-Nov-17 23:30N 35°12' E 139°47'612.6
2017-Nov-17 23:00N 35°06' E 139°45'713.1
2017-Nov-17 22:30N 35°02' E 139°39'612.4
2017-Nov-17 22:00N 34°58' E 139°33'229 6.1
2017-Nov-16 08:41N 34°03' E 135°03'211.6
2017-Nov-16 08:30N 34°05' E 135°03'4 8.0
2017-Nov-16 08:00N 34°08' E 135°07'1 0.2
2017-Nov-16 04:27N 34°07' E 135°07'0 0.5
2017-Nov-16 03:57N 34°07' E 135°08'1 1.4
2017-Nov-16 03:30N 34°08' E 135°07'2 4.8
2017-Nov-16 03:00N 34°09' E 135°09'0 0.1
2017-Nov-16 02:30N 34°09' E 135°09'0 0.1
2017-Nov-16 02:00N 34°09' E 135°09'0 0.1
2017-Nov-16 01:27N 34°09' E 135°09'0 0.0
2017-Nov-16 01:00N 34°09' E 135°09'0 0.0
2017-Nov-16 00:27N 34°09' E 135°09'0 0.0
2017-Nov-15 23:51N 34°09' E 135°09'0 0.9
2017-Nov-15 23:30N 34°09' E 135°09'610.8
2017-Nov-15 22:59N 34°06' E 135°03'  
2017-Nov-12 08:08N 35°02' E 139°30'211.3
2017-Nov-12 08:00N 35°03' E 139°32'611.4
2017-Nov-12 07:29N 35°05' E 139°38'611.3
2017-Nov-12 07:00N 35°09' E 139°44'611.7
2017-Nov-12 06:30N 35°14' E 139°46'611.9
2017-Nov-12 06:00N 35°19' E 139°43'511.0
2017-Nov-12 05:31N 35°25' E 139°43'611.2
2017-Nov-12 05:00N 35°29' E 139°48'2 0.5
2017-Nov-12 01:54N 35°31' E 139°46'1 3.4
2017-Nov-12 01:30N 35°30' E 139°48'3 6.9
2017-Nov-12 01:00N 35°27' E 139°47'611.9
2017-Nov-12 00:30N 35°21' E 139°45'511.0
2017-Nov-12 00:01N 35°16' E 139°46'611.4
2017-Nov-11 23:31N 35°10' E 139°46'510.4
2017-Nov-11 23:01N 35°05' E 139°43'611.4
2017-Nov-11 22:30N 35°02' E 139°38'611.5
2017-Nov-11 22:00N 34°58' E 139°32'231 6.9
2017-Nov-10 12:31N 34°07' E 134°59'111.6
2017-Nov-10 12:27N 34°07' E 134°59'511.6
2017-Nov-10 12:00N 34°13' E 134°59'1210.7
2017-Nov-10 10:52N 34°24' E 135°04'512.2
2017-Nov-10 10:30N 34°26' E 135°09'612.2
2017-Nov-10 10:00N 34°30' E 135°15'611.7
2017-Nov-10 09:30N 34°33' E 135°21'4 8.4
2017-Nov-10 09:00N 34°33' E 135°26'0 0.0
2017-Nov-10 03:00N 34°33' E 135°26'2 4.0
2017-Nov-10 02:30N 34°33' E 135°23'3 5.9
2017-Nov-10 01:59N 34°32' E 135°20'0 0.9
2017-Nov-10 01:30N 34°32' E 135°19'0 0.0
2017-Nov-10 00:48N 34°32' E 135°19'0 0.0
2017-Nov-10 00:18N 34°32' E 135°19'0 0.0
2017-Nov-09 23:48N 34°32' E 135°19'0 0.0
2017-Nov-09 23:24N 34°32' E 135°19'0 0.0
2017-Nov-09 23:00N 34°32' E 135°19'0 0.0
2017-Nov-09 22:30N 34°32' E 135°19'0 0.0
2017-Nov-09 21:42N 34°32' E 135°19'0 0.0
2017-Nov-09 21:30N 34°32' E 135°19'0 0.0
2017-Nov-09 21:00N 34°32' E 135°19'0 0.0
2017-Nov-09 20:24N 34°32' E 135°19'0 0.0
2017-Nov-09 20:00N 34°32' E 135°19'0 0.4
2017-Nov-09 19:30N 34°32' E 135°19'611.7
2017-Nov-09 19:00N 34°29' E 135°13'611.7
2017-Nov-09 18:30N 34°25' E 135°08'711.6
2017-Nov-09 17:56N 34°20' E 135°02'511.1
2017-Nov-09 17:30N 34°16' E 134°59'611.9
2017-Nov-09 17:00N 34°10' E 134°59'612.1
2017-Nov-09 16:30N 34°04' E 134°60'  
Track history (hours):
 
Tides and Currents Weather Stations Pressure Air Temp Water Temp Dewpoint Dewpoint Depression Visibility Wind Speed Wind Dir Waves Ship Positions

Toryo Maru

Last reported at 2017-Nov-19 06:25 UTC. Time now 2017-Nov-21 23:11 UTC.
Position N 34°58' E 139°26'.

Length 69 m; draft 5 m.

Type: Tanker. MMSI: 431697000.

Date/timePositionNaut miles runAvg speedWind from/ knotsBaromVisibWave heightAir tempDewpointWater temp
2017-Nov-19 06:25N 34°58' E 139°26'510.8
2017-Nov-19 05:58N 35°00' E 139°31'511.5
2017-Nov-19 05:31N 35°03' E 139°36'611.9
2017-Nov-19 05:01N 35°07' E 139°42'611.8
2017-Nov-19 04:31N 35°12' E 139°46'510.9
2017-Nov-19 04:01N 35°17' E 139°45'510.8
2017-Nov-19 03:30N 35°22' E 139°42'510.9
2017-Nov-19 03:01N 35°27' E 139°46'4 7.7
2017-Nov-19 02:30N 35°30' E 139°47'0 0.2
2017-Nov-19 01:48N 35°31' E 139°46'0 0.0
2017-Nov-19 01:30N 35°31' E 139°46'0 0.0
2017-Nov-19 00:18N 35°31' E 139°46'0 0.2
2017-Nov-19 00:00N 35°31' E 139°46'3 6.1
2017-Nov-18 23:29N 35°30' E 139°50'0 0.1
2017-Nov-18 23:00N 35°30' E 139°50'0 0.0
2017-Nov-18 22:30N 35°30' E 139°50'0 0.0
2017-Nov-18 22:00N 35°30' E 139°50'0 0.0
2017-Nov-18 21:30N 35°30' E 139°50'0 0.0
2017-Nov-18 21:00N 35°30' E 139°50'0 0.0
2017-Nov-18 20:30N 35°30' E 139°50'0 0.0
2017-Nov-18 20:00N 35°30' E 139°50'0 0.1
2017-Nov-18 19:30N 35°30' E 139°50'0 0.1
2017-Nov-18 18:58N 35°30' E 139°50'0 0.1
2017-Nov-18 18:29N 35°30' E 139°50'0 0.0
2017-Nov-18 18:00N 35°30' E 139°50'0 0.0
2017-Nov-18 17:30N 35°30' E 139°50'0 0.0
2017-Nov-18 16:58N 35°30' E 139°50'0 0.0
2017-Nov-18 16:29N 35°30' E 139°50'0 0.0
2017-Nov-18 16:00N 35°30' E 139°50'0 0.0
2017-Nov-18 15:30N 35°30' E 139°50'0 0.0
2017-Nov-18 15:00N 35°30' E 139°50'0 0.1
2017-Nov-18 14:30N 35°30' E 139°50'0 0.0
2017-Nov-18 14:00N 35°30' E 139°50'0 0.0
2017-Nov-18 13:30N 35°30' E 139°50'0 0.0
2017-Nov-18 13:00N 35°30' E 139°50'0 0.0
2017-Nov-18 12:30N 35°30' E 139°50'0 0.0
2017-Nov-18 12:00N 35°30' E 139°50'0 0.0
2017-Nov-18 11:30N 35°30' E 139°50'0 0.0
2017-Nov-18 11:00N 35°30' E 139°50'0 0.0
2017-Nov-18 10:30N 35°30' E 139°50'0 0.0
2017-Nov-18 09:57N 35°30' E 139°50'0 0.1
2017-Nov-18 09:21N 35°30' E 139°50'0 0.0
2017-Nov-18 08:57N 35°30' E 139°50'0 0.0
2017-Nov-18 08:30N 35°30' E 139°50'5 9.0
2017-Nov-18 07:53N 35°31' E 139°57'3 0.6
2017-Nov-18 01:52N 35°30' E 140°01'3 8.7
2017-Nov-18 01:29N 35°30' E 139°57'612.1
2017-Nov-18 01:00N 35°27' E 139°51'612.0
2017-Nov-18 00:30N 35°23' E 139°46'510.8
2017-Nov-18 00:00N 35°17' E 139°45'510.8
2017-Nov-17 23:30N 35°12' E 139°47'612.6
2017-Nov-17 23:00N 35°06' E 139°45'713.1
2017-Nov-17 22:30N 35°02' E 139°39'612.4
2017-Nov-17 22:00N 34°58' E 139°33'229 6.1
2017-Nov-16 08:41N 34°03' E 135°03'211.6
2017-Nov-16 08:30N 34°05' E 135°03'4 8.0
2017-Nov-16 08:00N 34°08' E 135°07'1 0.2
2017-Nov-16 04:27N 34°07' E 135°07'0 0.5
2017-Nov-16 03:57N 34°07' E 135°08'1 1.4
2017-Nov-16 03:30N 34°08' E 135°07'2 4.8
2017-Nov-16 03:00N 34°09' E 135°09'0 0.1
2017-Nov-16 02:30N 34°09' E 135°09'0 0.1
2017-Nov-16 02:00N 34°09' E 135°09'0 0.1
2017-Nov-16 01:27N 34°09' E 135°09'0 0.0
2017-Nov-16 01:00N 34°09' E 135°09'0 0.0
2017-Nov-16 00:27N 34°09' E 135°09'0 0.0
2017-Nov-15 23:51N 34°09' E 135°09'0 0.9
2017-Nov-15 23:30N 34°09' E 135°09'610.8
2017-Nov-15 22:59N 34°06' E 135°03'  
2017-Nov-12 08:08N 35°02' E 139°30'211.3
2017-Nov-12 08:00N 35°03' E 139°32'611.4
2017-Nov-12 07:29N 35°05' E 139°38'611.3
2017-Nov-12 07:00N 35°09' E 139°44'611.7
2017-Nov-12 06:30N 35°14' E 139°46'611.9
2017-Nov-12 06:00N 35°19' E 139°43'511.0
2017-Nov-12 05:31N 35°25' E 139°43'611.2
2017-Nov-12 05:00N 35°29' E 139°48'2 0.5
2017-Nov-12 01:54N 35°31' E 139°46'1 3.4
2017-Nov-12 01:30N 35°30' E 139°48'3 6.9
2017-Nov-12 01:00N 35°27' E 139°47'611.9
2017-Nov-12 00:30N 35°21' E 139°45'511.0
2017-Nov-12 00:01N 35°16' E 139°46'611.4
2017-Nov-11 23:31N 35°10' E 139°46'510.4
2017-Nov-11 23:01N 35°05' E 139°43'611.4
2017-Nov-11 22:30N 35°02' E 139°38'611.5
2017-Nov-11 22:00N 34°58' E 139°32'231 6.9
2017-Nov-10 12:31N 34°07' E 134°59'111.6
2017-Nov-10 12:27N 34°07' E 134°59'511.6
2017-Nov-10 12:00N 34°13' E 134°59'1210.7
2017-Nov-10 10:52N 34°24' E 135°04'512.2
2017-Nov-10 10:30N 34°26' E 135°09'612.2
2017-Nov-10 10:00N 34°30' E 135°15'611.7
2017-Nov-10 09:30N 34°33' E 135°21'4 8.4
2017-Nov-10 09:00N 34°33' E 135°26'0 0.0
2017-Nov-10 03:00N 34°33' E 135°26'2 4.0
2017-Nov-10 02:30N 34°33' E 135°23'3 5.9
2017-Nov-10 01:59N 34°32' E 135°20'0 0.9
2017-Nov-10 01:30N 34°32' E 135°19'0 0.0
2017-Nov-10 00:48N 34°32' E 135°19'0 0.0
2017-Nov-10 00:18N 34°32' E 135°19'0 0.0
2017-Nov-09 23:48N 34°32' E 135°19'0 0.0
2017-Nov-09 23:24N 34°32' E 135°19'0 0.0
2017-Nov-09 23:00N 34°32' E 135°19'0 0.0
2017-Nov-09 22:30N 34°32' E 135°19'0 0.0
2017-Nov-09 21:42N 34°32' E 135°19'0 0.0
2017-Nov-09 21:30N 34°32' E 135°19'0 0.0
2017-Nov-09 21:00N 34°32' E 135°19'0 0.0
2017-Nov-09 20:24N 34°32' E 135°19'0 0.0
2017-Nov-09 20:00N 34°32' E 135°19'0 0.4
2017-Nov-09 19:30N 34°32' E 135°19'611.7
2017-Nov-09 19:00N 34°29' E 135°13'611.7
2017-Nov-09 18:30N 34°25' E 135°08'711.6
2017-Nov-09 17:56N 34°20' E 135°02'511.1
2017-Nov-09 17:30N 34°16' E 134°59'611.9
2017-Nov-09 17:00N 34°10' E 134°59'612.1
2017-Nov-09 16:30N 34°04' E 134°60'  

Dump ship's entire track history